Time;durP1;ratioP1;P1;durP2;ratioP2;P2;SDS_P1;SDS_P2;PMS_P1;PMS_P2;Temp;Humidity;BMP_temperature;BMP_pressure;BME280_temperature;BME280_humidity;BME280_pressure;Samples;Min_cycle;Max_cycle;Signal;HPM_P1;HPM_P2
2023/12/10 00:01:30;;;;;;;3.42;2.45;;;;;;;-25.24;51.86;99205.94;6280655;28;20043;-66
2023/12/10 00:04:32;;;;;;;5.13;2.92;;;;;;;-25.04;52.29;99200.63;6288055;28;20047;-67
2023/12/10 00:07:36;;;;;;;2.55;2.38;;;;;;;-24.97;52.74;99193.09;6285212;28;20088;-67
2023/12/10 00:10:37;;;;;;;3.50;2.58;;;;;;;-24.84;51.80;99189.47;6276291;28;20179;-67
2023/12/10 00:13:41;;;;;;;4.93;2.70;;;;;;;-24.82;51.92;99188.94;6279374;28;20041;-67
2023/12/10 00:16:45;;;;;;;3.38;3.13;;;;;;;-24.74;52.18;99197.19;6282643;28;20530;-67
2023/12/10 00:19:47;;;;;;;4.90;3.45;;;;;;;-24.72;52.55;99190.78;6280607;28;20048;-67
2023/12/10 00:22:48;;;;;;;2.63;2.28;;;;;;;-24.75;52.29;99187.97;6272162;28;20053;-66
2023/12/10 00:25:52;;;;;;;3.95;3.05;;;;;;;-24.80;52.73;99181.63;6278702;28;20041;-66
2023/12/10 00:28:54;;;;;;;6.05;4.63;;;;;;;-24.79;52.47;99178.41;6274383;28;20155;-66
2023/12/10 00:31:55;;;;;;;6.10;4.10;;;;;;;-24.85;53.35;99176.13;6285167;28;20045;-66
2023/12/10 00:34:56;;;;;;;10.02;4.28;;;;;;;-24.92;53.24;99171.25;6279818;28;20065;-68
2023/12/10 00:37:58;;;;;;;8.40;4.85;;;;;;;-24.98;53.57;99166.50;6275836;28;20037;-66
2023/12/10 00:41:02;;;;;;;13.32;5.65;;;;;;;-25.02;53.04;99169.38;6275885;28;20282;-67
2023/12/10 00:44:04;;;;;;;15.30;7.13;;;;;;;-25.04;53.44;99173.28;6281125;28;20162;-67
2023/12/10 00:47:10;;;;;;;10.85;6.35;;;;;;;-25.14;53.32;99158.13;6270003;28;20045;-66
2023/12/10 00:50:11;;;;;;;24.30;10.52;;;;;;;-25.21;53.26;99155.72;6281301;28;20461;-67
2023/12/10 00:53:13;;;;;;;13.82;9.05;;;;;;;-25.33;53.14;99135.38;6284572;28;20032;-66
2023/12/10 00:56:16;;;;;;;25.27;12.32;;;;;;;-25.28;52.90;99144.19;6258956;28;20049;-66
2023/12/10 00:59:18;;;;;;;26.10;12.00;;;;;;;-25.37;53.09;99127.44;6251246;28;20470;-67
2023/12/10 01:02:20;;;;;;;36.65;14.07;;;;;;;-25.37;53.50;99129.91;6237588;28;20415;-67
2023/12/10 01:05:21;;;;;;;29.50;13.35;;;;;;;-25.37;52.96;99147.28;6255640;28;20452;-67
2023/12/10 01:08:23;;;;;;;24.27;12.00;;;;;;;-25.41;53.57;99136.16;6252255;28;20128;-67
2023/12/10 01:11:25;;;;;;;25.50;13.15;;;;;;;-25.46;53.33;99130.69;6255997;28;20460;-66
2023/12/10 01:14:29;;;;;;;27.05;12.07;;;;;;;-25.51;52.85;99131.75;6254962;28;20037;-66
2023/12/10 01:17:35;;;;;;;22.58;11.75;;;;;;;-25.60;53.41;99120.84;6256231;28;20044;-66
2023/12/10 01:20:37;;;;;;;25.90;10.20;;;;;;;-25.60;53.41;99123.31;6255914;28;20183;-68
2023/12/10 01:23:39;;;;;;;25.20;10.15;;;;;;;-25.65;52.81;99119.44;6236234;28;20134;-66
2023/12/10 01:26:44;;;;;;;9.30;6.20;;;;;;;-25.62;53.34;99129.72;6259543;28;20577;-66
2023/12/10 01:29:45;;;;;;;12.93;7.25;;;;;;;-25.69;52.81;99117.34;6248013;28;20051;-66
2023/12/10 01:32:46;;;;;;;15.90;6.25;;;;;;;-25.71;53.17;99123.75;6253631;28;20033;-67
2023/12/10 01:35:50;;;;;;;14.73;7.82;;;;;;;-25.76;53.35;99124.81;6252807;28;20033;-67
2023/12/10 01:38:52;;;;;;;13.57;6.68;;;;;;;-25.82;52.93;99121.72;6254898;28;20123;-67
2023/12/10 01:41:53;;;;;;;17.83;7.65;;;;;;;-25.90;53.28;99111.81;6256544;28;20175;-67
2023/12/10 01:44:55;;;;;;;19.23;8.32;;;;;;;-25.95;53.12;99110.44;6248780;28;20068;-67
2023/12/10 01:48:04;;;;;;;13.68;6.70;;;;;;;-25.92;52.56;99117.34;6246784;28;20162;-66
2023/12/10 01:51:08;;;;;;;11.32;6.53;;;;;;;-25.96;53.21;99115.22;6235951;28;20052;-67
2023/12/10 01:54:21;;;;;;;11.82;6.75;;;;;;;-25.99;53.03;99108.31;6252451;28;20145;-67
2023/12/10 01:57:23;;;;;;;12.15;5.45;;;;;;;-25.97;52.52;99118.41;6246769;28;20041;-67
2023/12/10 02:00:27;;;;;;;17.00;6.25;;;;;;;-25.98;52.39;99112.59;6250017;28;20029;-67
2023/12/10 02:03:32;;;;;;;13.07;6.05;;;;;;;-26.05;52.32;99105.16;6246280;28;20051;-67
2023/12/10 02:06:34;;;;;;;20.92;6.28;;;;;;;-26.04;53.01;99111.88;6251517;28;20102;-66
2023/12/10 02:09:38;;;;;;;10.07;6.00;;;;;;;-26.02;52.83;99112.94;6250034;28;20040;-67
2023/12/10 02:12:40;;;;;;;15.57;6.50;;;;;;;-26.01;52.43;99116.28;6250375;28;20048;-66
2023/12/10 02:15:43;;;;;;;7.28;5.05;;;;;;;-26.03;52.37;99118.63;6253968;28;20142;-66
2023/12/10 02:18:44;;;;;;;14.75;5.20;;;;;;;-26.10;52.81;99106.25;6257202;28;20158;-66
2023/12/10 02:21:47;;;;;;;24.13;8.98;;;;;;;-26.00;52.68;99115.59;6249194;28;20131;-66
2023/12/10 02:24:54;;;;;;;43.70;14.32;;;;;;;-25.99;52.46;99118.22;6256746;28;20072;-66
2023/12/10 02:27:56;;;;;;;36.58;14.70;;;;;;;-26.02;52.80;99109.56;6254969;28;20060;-67
2023/12/10 02:30:58;;;;;;;42.78;15.65;;;;;;;-26.01;53.27;99117.19;6237103;28;20458;-67
2023/12/10 02:34:02;;;;;;;32.78;13.55;;;;;;;-26.02;52.48;99117.91;6254200;28;20048;-67
2023/12/10 02:37:09;;;;;;;25.85;11.70;;;;;;;-26.03;52.74;99113.66;6249156;28;20038;-67
2023/12/10 02:40:13;;;;;;;30.77;13.27;;;;;;;-26.05;52.71;99117.56;6246148;28;20033;-67
2023/12/10 02:43:16;;;;;;;17.35;7.60;;;;;;;-26.05;52.87;99115.09;6234113;28;20095;-68
2023/12/10 02:46:18;;;;;;;18.42;8.32;;;;;;;-26.10;52.34;99116.16;6256863;28;20041;-67
2023/12/10 02:49:19;;;;;;;18.88;9.25;;;;;;;-26.16;52.65;99113.00;6255123;28;20034;-67
2023/12/10 02:52:24;;;;;;;23.02;8.52;;;;;;;-26.11;52.85;99120.25;6248267;28;20095;-68
2023/12/10 02:55:28;;;;;;;15.85;7.45;;;;;;;-26.07;53.18;99121.47;6256640;28;20104;-67
2023/12/10 02:58:31;;;;;;;12.82;5.38;;;;;;;-26.09;53.35;99120.44;6260672;28;20042;-67
2023/12/10 03:01:32;;;;;;;20.88;6.47;;;;;;;-26.11;53.18;99111.94;6224057;28;20053;-68
2023/12/10 03:04:37;;;;;;;6.80;4.30;;;;;;;-26.01;53.18;99114.69;6255132;28;20049;-67
2023/12/10 03:07:41;;;;;;;13.50;6.78;;;;;;;-26.00;53.34;99118.09;6255610;28;20518;-67
2023/12/10 03:10:42;;;;;;;16.83;8.43;;;;;;;-26.03;53.33;99111.19;6261595;28;20610;-67
2023/12/10 03:13:46;;;;;;;20.30;8.35;;;;;;;-26.06;53.57;99118.28;6251231;28;20037;-68
2023/12/10 03:16:50;;;;;;;21.63;8.82;;;;;;;-26.10;52.88;99111.19;6254861;28;20056;-68
2023/12/10 03:19:51;;;;;;;18.20;6.55;;;;;;;-26.10;53.55;99111.19;6250408;28;20053;-68
2023/12/10 03:22:55;;;;;;;18.23;7.63;;;;;;;-26.18;53.14;99102.94;6258212;28;20544;-67
2023/12/10 03:26:00;;;;;;;11.45;6.43;;;;;;;-26.18;52.65;99102.03;6258320;28;20045;-67
2023/12/10 03:29:02;;;;;;;13.00;5.47;;;;;;;-26.24;52.98;99102.22;6253833;28;20127;-67
2023/12/10 03:32:06;;;;;;;11.85;6.25;;;;;;;-26.29;52.85;99103.34;6258179;28;20041;-68
2023/12/10 03:35:10;;;;;;;9.85;5.88;;;;;;;-26.34;52.81;99105.28;6242717;28;20511;-67
2023/12/10 03:38:15;;;;;;;9.30;5.15;;;;;;;-26.39;53.37;99105.47;6247540;28;20041;-67
2023/12/10 03:41:17;;;;;;;6.05;4.65;;;;;;;-26.40;53.63;99108.69;6253421;28;20092;-66
2023/12/10 03:44:19;;;;;;;5.10;4.43;;;;;;;-26.48;52.51;99094.53;6239242;28;20041;-67
2023/12/10 03:47:20;;;;;;;6.20;3.75;;;;;;;-26.46;52.76;99107.97;6249542;28;20049;-67
2023/12/10 03:50:27;;;;;;;11.50;4.50;;;;;;;-26.50;53.18;99109.25;6252846;28;20054;-68
2023/12/10 03:53:31;;;;;;;5.10;3.97;;;;;;;-26.54;52.91;99114.59;6253324;28;20530;-66
2023/12/10 03:56:32;;;;;;;8.43;4.55;;;;;;;-26.56;53.25;99102.00;6257598;28;20070;-68
2023/12/10 03:59:34;;;;;;;5.50;3.85;;;;;;;-26.52;53.11;99110.66;6254806;28;20079;-67
2023/12/10 04:02:40;;;;;;;8.60;4.75;;;;;;;-26.51;52.85;99107.50;6252383;28;20033;-68
2023/12/10 04:05:44;;;;;;;10.50;4.15;;;;;;;-26.51;53.24;99099.19;6253757;28;20059;-67
2023/12/10 04:08:46;;;;;;;10.95;4.45;;;;;;;-26.45;52.68;99109.75;6244651;28;20421;-67
2023/12/10 04:11:50;;;;;;;20.35;5.47;;;;;;;-26.44;53.06;99104.94;6255359;28;20048;-66
2023/12/10 04:14:52;;;;;;;11.98;4.82;;;;;;;-26.39;52.41;99121.22;6250923;28;20476;-67
2023/12/10 04:17:53;;;;;;;20.58;6.85;;;;;;;-26.37;52.60;99122.28;6255169;28;20049;-67
2023/12/10 04:20:55;;;;;;;12.85;5.70;;;;;;;-26.40;51.99;99121.94;6255833;28;20136;-66
2023/12/10 04:23:56;;;;;;;20.63;6.53;;;;;;;-26.41;52.04;99117.69;6236739;28;20083;-67
2023/12/10 04:26:58;;;;;;;19.27;7.65;;;;;;;-26.44;52.12;99112.38;6255450;28;20037;-67
2023/12/10 04:30:02;;;;;;;13.70;5.95;;;;;;;-26.35;52.35;99119.97;6257330;28;20033;-68
2023/12/10 04:33:07;;;;;;;11.50;5.38;;;;;;;-26.29;51.79;99132.16;6247537;28;20574;-67
2023/12/10 04:36:09;;;;;;;20.08;8.88;;;;;;;-26.21;52.21;99127.34;6251854;28;20194;-67
2023/12/10 04:39:11;;;;;;;15.70;6.43;;;;;;;-26.14;51.83;99133.91;6252474;28;20056;-68
2023/12/10 04:42:14;;;;;;;12.27;5.82;;;;;;;-26.15;52.60;99113.19;6259052;28;20041;-67
2023/12/10 04:45:16;;;;;;;7.93;5.28;;;;;;;-26.02;51.60;99120.38;6255108;28;20437;-68
2023/12/10 04:48:20;;;;;;;17.23;6.90;;;;;;;-26.02;51.99;99115.41;6235025;28;20183;-67
2023/12/10 04:51:24;;;;;;;8.82;5.93;;;;;;;-25.87;52.06;99121.19;6258946;28;20202;-68
2023/12/10 04:54:26;;;;;;;13.98;7.72;;;;;;;-25.75;52.03;99122.53;6258530;28;20542;-67
2023/12/10 04:57:31;;;;;;;16.50;7.68;;;;;;;-25.66;52.07;99117.69;6246204;28;20503;-69
2023/12/10 05:00:32;;;;;;;16.23;7.65;;;;;;;-25.53;51.45;99123.25;6255633;28;20037;-70
2023/12/10 05:03:41;;;;;;;25.70;9.23;;;;;;;-25.42;51.92;99110.41;6223371;28;20465;-68
2023/12/10 05:06:42;;;;;;;27.27;10.23;;;;;;;-25.33;51.52;99117.09;6256946;28;20053;-69
2023/12/10 05:09:44;;;;;;;25.27;9.60;;;;;;;-25.37;52.00;99092.66;6251892;28;20414;-68
2023/12/10 05:12:46;;;;;;;21.63;9.32;;;;;;;-25.10;51.35;99120.47;6242796;28;20490;-69
2023/12/10 05:15:47;;;;;;;24.48;12.38;;;;;;;-24.94;51.81;99125.44;6253266;28;20048;-67
2023/12/10 05:18:49;;;;;;;28.05;12.60;;;;;;;-24.84;51.32;99130.69;6248855;28;20144;-69
2023/12/10 05:21:50;;;;;;;28.58;9.77;;;;;;;-24.71;51.75;99127.91;6249593;28;20049;-68
2023/12/10 05:24:54;;;;;;;16.15;5.72;;;;;;;-24.60;51.60;99127.44;6244945;28;20053;-69
2023/12/10 05:27:58;;;;;;;24.15;8.77;;;;;;;-24.50;51.43;99120.25;6252553;28;20506;-69
2023/12/10 05:31:00;;;;;;;18.02;10.18;;;;;;;-24.34;51.72;99116.84;6248679;28;20049;-69
2023/12/10 05:34:02;;;;;;;13.23;7.93;;;;;;;-24.26;51.36;99116.03;6258588;28;20048;-68
2023/12/10 05:37:03;;;;;;;24.95;10.50;;;;;;;-23.97;51.21;99131.53;6255228;28;20523;-69
2023/12/10 05:40:09;;;;;;;19.13;9.88;;;;;;;-23.81;51.25;99116.56;6243629;28;20111;-69
2023/12/10 05:43:13;;;;;;;26.67;13.00;;;;;;;-23.64;51.75;99128.22;6254860;28;20033;-69
2023/12/10 05:46:15;;;;;;;32.70;15.65;;;;;;;-23.56;51.42;99129.03;6237354;28;20048;-69
2023/12/10 05:49:16;;;;;;;24.98;12.30;;;;;;;-23.52;51.56;99124.50;6239114;28;20140;-68
2023/12/10 05:52:18;;;;;;;18.67;10.15;;;;;;;-23.42;51.18;99136.28;6252015;28;20128;-69
2023/12/10 05:55:22;;;;;;;25.40;9.40;;;;;;;-23.35;51.47;99138.66;6251979;28;20118;-69
2023/12/10 05:58:23;;;;;;;28.60;14.23;;;;;;;-23.27;51.14;99142.81;6273402;28;20547;-69
2023/12/10 06:01:28;;;;;;;19.52;8.65;;;;;;;-23.24;51.26;99133.16;6269891;28;20040;-70
2023/12/10 06:04:29;;;;;;;12.97;8.00;;;;;;;-23.17;51.59;99144.66;6278388;28;20437;-69
2023/12/10 06:07:35;;;;;;;26.60;11.85;;;;;;;-23.05;51.42;99140.03;6274521;28;20516;-69
2023/12/10 06:10:37;;;;;;;22.67;11.35;;;;;;;-22.91;51.62;99138.13;6272316;28;20041;-69
2023/12/10 06:13:39;;;;;;;22.65;9.32;;;;;;;-22.75;51.18;99135.56;6284918;28;20059;-70
2023/12/10 06:16:41;;;;;;;25.55;11.52;;;;;;;-22.67;51.27;99129.75;6275506;28;20029;-71
2023/12/10 06:19:42;;;;;;;17.90;9.25;;;;;;;-22.51;51.09;99124.63;6274760;28;20036;-75
2023/12/10 06:22:46;;;;;;;22.55;10.20;;;;;;;-22.32;51.00;99124.84;6283398;28;20564;-70
2023/12/10 06:25:50;;;;;;;25.65;12.82;;;;;;;-22.21;51.19;99130.88;6275542;28;20036;-76
2023/12/10 06:28:51;;;;;;;27.77;15.07;;;;;;;-22.08;50.88;99130.41;6277010;28;20080;-72
2023/12/10 06:31:56;;;;;;;40.42;15.27;;;;;;;-21.99;51.03;99114.72;6277643;28;20413;-73
2023/12/10 06:35:03;;;;;;;30.17;14.38;;;;;;;-21.83;51.12;99127.03;6271810;28;20506;-72
2023/12/10 06:38:06;;;;;;;;;;;;;;;-21.66;51.70;99126.16;6271013;28;20651;-73
2023/12/10 06:41:07;;;;;;;35.80;17.58;;;;;;;-21.49;50.86;99135.25;6278544;28;19916;-72
2023/12/10 06:44:14;;;;;;;35.05;13.77;;;;;;;-21.27;50.38;99125.63;6272318;28;20037;-70
2023/12/10 06:47:18;;;;;;;33.83;11.70;;;;;;;-21.05;50.78;99131.03;6271271;28;20040;-70
2023/12/10 06:50:20;;;;;;;19.95;7.50;;;;;;;-20.95;50.50;99106.13;6278390;28;20521;-71
2023/12/10 06:53:23;;;;;;;13.02;8.60;;;;;;;-20.69;50.56;99123.56;6281717;28;20182;-75
2023/12/10 06:56:30;;;;;;;19.85;9.35;;;;;;;-20.52;50.08;99121.69;6278899;28;20437;-69
2023/12/10 06:59:32;;;;;;;17.77;7.97;;;;;;;-20.37;50.40;99122.19;6280922;28;21153;-72
2023/12/10 07:02:39;;;;;;;22.75;8.70;;;;;;;-20.29;50.53;99106.22;6283772;28;20094;-71
2023/12/10 07:05:43;;;;;;;22.02;10.02;;;;;;;-20.14;50.64;99122.63;6275490;28;20049;-73
2023/12/10 07:08:50;;;;;;;27.77;12.73;;;;;;;-20.02;50.17;99126.22;6278162;28;20044;-71
2023/12/10 07:11:55;;;;;;;29.55;12.77;;;;;;;-19.83;49.99;99118.72;6272261;28;20037;-68
2023/12/10 07:15:00;;;;;;;32.30;14.13;;;;;;;-16.40;48.98;99103.16;6268329;28;20045;-69
2023/12/10 07:18:04;;;;;;;34.83;16.30;;;;;;;-10.38;40.97;99101.19;6279200;28;20664;-69
2023/12/10 07:21:06;;;;;;;29.70;14.93;;;;;;;-5.26;35.13;99107.91;6274797;28;20144;-68
2023/12/10 07:24:10;;;;;;;22.10;10.20;;;;;;;-1.49;31.21;99092.00;6271760;28;20425;-69
2023/12/10 07:27:14;;;;;;;;;;;;;;;1.43;30.07;99095.78;6278696;28;20468;-69
2023/12/10 07:30:20;;;;;;;14.83;7.27;;;;;;;3.39;26.97;99080.81;6282211;28;20369;-71
2023/12/10 07:33:24;;;;;;;22.13;10.18;;;;;;;4.71;26.15;99096.03;6283883;28;20040;-71
2023/12/10 07:36:29;;;;;;;15.60;7.25;;;;;;;5.75;25.00;99089.97;6288746;28;20674;-72
2023/12/10 07:39:33;;;;;;;12.75;4.93;;;;;;;6.49;24.11;99076.94;6285058;28;20047;-72
2023/12/10 07:42:37;;;;;;;8.02;4.60;;;;;;;7.10;23.17;99088.28;6280267;28;20541;-72
2023/12/10 07:45:39;;;;;;;6.15;4.72;;;;;;;7.85;22.71;99073.06;6287704;28;20036;-71
2023/12/10 07:48:40;;;;;;;8.95;5.45;;;;;;;8.46;21.72;99066.59;6281675;28;20072;-72
2023/12/10 07:51:47;;;;;;;11.68;5.65;;;;;;;8.94;20.90;99066.41;6282752;28;20044;-72
2023/12/10 07:54:54;;;;;;;11.65;5.45;;;;;;;9.06;19.76;99067.00;6278787;28;20059;-71
2023/12/10 07:57:58;;;;;;;9.07;4.78;;;;;;;9.36;20.24;99066.28;6261178;28;20410;-73
2023/12/10 08:01:03;;;;;;;8.60;4.90;;;;;;;9.91;19.33;99053.47;6249178;28;20121;-71
2023/12/10 08:04:07;;;;;;;8.02;3.97;;;;;;;10.48;18.56;99070.31;6256166;28;20418;-71
2023/12/10 08:07:12;;;;;;;6.38;4.03;;;;;;;10.59;18.17;99062.97;6248506;28;20529;-71
2023/12/10 08:10:14;;;;;;;6.72;4.18;;;;;;;10.77;17.58;99056.28;6254091;28;20049;-70
2023/12/10 08:13:18;;;;;;;10.10;4.60;;;;;;;11.03;17.13;99052.81;6257484;28;20045;-71
2023/12/10 08:16:21;;;;;;;6.97;3.72;;;;;;;11.54;16.75;99057.28;6241218;28;20418;-71
2023/12/10 08:19:23;;;;;;;7.10;3.17;;;;;;;11.69;16.25;99059.41;6253945;28;20154;-70
2023/12/10 08:22:25;;;;;;;6.25;3.70;;;;;;;11.94;16.06;99048.00;6254940;28;20052;-71
2023/12/10 08:25:32;;;;;;;4.95;2.78;;;;;;;12.34;15.71;99041.28;6250745;28;20080;-71
2023/12/10 08:28:35;;;;;;;4.95;3.10;;;;;;;12.63;15.12;99049.91;6183181;28;20050;-70
2023/12/10 08:31:41;;;;;;;6.18;2.65;;;;;;;12.90;14.65;99037.38;6180220;28;20610;-69
2023/12/10 08:34:49;;;;;;;5.53;2.78;;;;;;;13.55;13.84;99046.22;6179479;28;20054;-68
2023/12/10 08:37:53;;;;;;;8.00;2.50;;;;;;;14.06;13.75;99042.22;6167255;28;20046;-68
2023/12/10 08:40:55;;;;;;;8.60;3.45;;;;;;;13.89;13.72;99033.25;6182680;28;20057;-69
2023/12/10 08:44:00;;;;;;;6.90;3.92;;;;;;;13.59;13.79;99039.88;6183527;28;20058;-69
2023/12/10 08:47:04;;;;;;;8.07;3.92;;;;;;;13.37;13.90;99030.19;6174918;28;20043;-69
2023/12/10 08:53:43;;;;;;;7.90;4.72;;;;;;;13.02;14.01;99015.75;6840423;23;20051;-70
2023/12/10 08:56:46;;;;;;;7.85;4.28;;;;;;;13.00;13.52;99026.38;6084606;29;20051;-70
2023/12/10 08:59:59;;;;;;;5.65;3.20;;;;;;;12.86;12.97;99027.88;6087740;29;20028;-69
2023/12/10 09:03:04;;;;;;;6.15;3.22;;;;;;;12.64;13.08;99012.00;6093385;29;20040;-70
2023/12/10 09:06:09;;;;;;;5.15;2.65;;;;;;;12.44;13.44;99018.06;6089883;29;20123;-64
2023/12/10 09:09:11;;;;;;;8.60;4.72;;;;;;;12.30;13.40;99022.06;6086754;29;20055;-66
2023/12/10 09:12:18;;;;;;;3.78;2.88;;;;;;;12.01;13.19;99012.59;6090336;29;20493;-64
2023/12/10 09:15:21;;;;;;;4.40;2.70;;;;;;;11.56;13.09;99010.63;6091331;29;20063;-66
2023/12/10 09:18:28;;;;;;;5.38;2.60;;;;;;;11.20;13.26;99013.59;6090727;29;20067;-65
2023/12/10 09:21:34;;;;;;;4.93;2.88;;;;;;;11.13;13.13;99004.19;6088151;29;20916;-66
2023/12/10 09:24:41;;;;;;;6.13;2.85;;;;;;;11.11;13.22;99013.06;6077797;29;20040;-64
2023/12/10 09:27:45;;;;;;;8.80;3.92;;;;;;;10.89;13.28;99002.34;6091570;29;20041;-65
2023/12/10 09:30:49;;;;;;;14.98;7.60;;;;;;;10.90;13.26;99004.94;6093676;29;20040;-64
2023/12/10 09:33:50;;;;;;;28.67;15.23;;;;;;;10.94;13.23;99010.97;6091880;29;20040;-68
2023/12/10 09:36:52;;;;;;;9.32;5.57;;;;;;;10.82;13.08;99021.91;6097192;29;20405;-69
2023/12/10 09:39:56;;;;;;;8.32;4.47;;;;;;;10.55;13.25;99011.31;6090821;29;20040;-68
2023/12/10 09:43:01;;;;;;;11.07;4.50;;;;;;;10.25;13.35;99013.94;6091322;29;20036;-68
2023/12/10 09:46:03;;;;;;;7.10;3.83;;;;;;;9.60;13.47;99009.59;6095093;29;20044;-67
2023/12/10 09:49:05;;;;;;;7.25;4.10;;;;;;;9.17;13.71;99018.59;6093667;29;22177;-68
2023/12/10 09:52:08;;;;;;;7.70;3.42;;;;;;;8.52;13.84;99013.13;6086099;29;20037;-67
2023/12/10 09:55:12;;;;;;;188.70;17.85;;;;;;;7.59;14.31;99019.38;6084300;29;20060;-67
2023/12/10 09:58:15;;;;;;;7.07;3.20;;;;;;;7.06;14.65;99020.31;6093172;29;20142;-66
2023/12/10 10:01:17;;;;;;;8.80;4.38;;;;;;;6.80;14.91;99012.88;6093270;29;20453;-66
2023/12/10 10:04:18;;;;;;;8.45;3.55;;;;;;;4.09;15.85;98992.97;6087180;29;20040;-72
2023/12/10 10:07:23;;;;;;;12.13;4.47;;;;;;;0.32;18.12;99008.41;6088737;29;20172;-68
2023/12/10 10:10:31;;;;;;;23.48;8.38;;;;;;;-2.75;20.80;99014.63;6094045;29;20577;-67
2023/12/10 10:13:36;;;;;;;13.95;6.22;;;;;;;-4.97;22.86;99003.59;6077876;29;20494;-68
2023/12/10 10:16:39;;;;;;;22.15;7.95;;;;;;;-6.75;23.64;99006.94;6089906;29;20043;-68
2023/12/10 10:19:48;;;;;;;17.27;8.73;;;;;;;-8.16;25.72;99008.09;6084113;29;20041;-71
2023/12/10 10:22:51;;;;;;;21.42;7.47;;;;;;;-9.11;26.11;99009.00;6090542;29;20046;-67
2023/12/10 10:25:55;;;;;;;15.43;7.93;;;;;;;-9.95;26.73;99003.25;6086756;29;20496;-66
2023/12/10 10:29:03;;;;;;;19.77;7.78;;;;;;;-10.54;27.23;99013.84;6092065;29;20047;-72
2023/12/10 10:32:09;;;;;;;16.27;7.15;;;;;;;-11.11;27.68;99004.88;6072734;29;20051;-69
2023/12/10 10:35:12;;;;;;;22.08;8.40;;;;;;;-11.45;28.01;99005.56;6090494;29;20553;-69
2023/12/10 10:38:18;;;;;;;17.70;8.85;;;;;;;-11.72;28.40;99019.25;6087480;29;20036;-69
2023/12/10 10:41:24;;;;;;;21.65;9.70;;;;;;;-12.11;28.43;99009.50;6092886;29;20051;-67
2023/12/10 10:44:32;;;;;;;23.80;10.50;;;;;;;-12.27;29.11;99012.78;6091027;29;20040;-67
2023/12/10 10:47:36;;;;;;;33.22;13.05;;;;;;;-12.40;29.22;99010.31;6096421;29;20052;-66
2023/12/10 10:50:39;;;;;;;34.58;13.35;;;;;;;-12.61;29.12;99011.56;6094117;29;20036;-65
2023/12/10 10:53:42;;;;;;;41.87;15.90;;;;;;;-12.78;29.75;99008.03;6083044;29;20060;-66
2023/12/10 10:56:47;;;;;;;37.58;16.45;;;;;;;-12.78;29.30;99001.28;6079303;29;20044;-68
2023/12/10 10:59:51;;;;;;;43.45;16.50;;;;;;;-12.75;29.53;98996.41;6094524;29;20043;-68
2023/12/10 11:03:02;;;;;;;46.20;20.85;;;;;;;-12.98;30.77;98961.19;6094330;29;20131;-67
2023/12/10 11:06:10;;;;;;;48.28;17.95;;;;;;;-12.90;30.44;98995.50;6077536;29;20063;-67
2023/12/10 11:09:11;;;;;;;48.53;17.33;;;;;;;-13.07;30.89;98998.66;6096443;29;20069;-68
2023/12/10 11:12:42;;;;;;;35.92;16.50;;;;;;;-13.24;31.92;98985.81;6085270;29;20032;-66
2023/12/10 11:15:43;;;;;;;48.25;22.10;;;;;;;-13.52;31.45;98974.78;6093085;29;20052;-68
2023/12/10 11:18:58;;;;;;;47.83;20.40;;;;;;;-14.00;32.75;98976.81;6098755;29;20040;-68
2023/12/10 11:22:03;;;;;;;39.70;18.15;;;;;;;-14.84;33.40;98971.28;6095383;29;20047;-67
2023/12/10 11:25:05;;;;;;;41.53;17.65;;;;;;;-15.51;34.60;98988.59;6091615;29;20051;-67
2023/12/10 11:28:15;;;;;;;49.10;19.70;;;;;;;-16.03;35.04;98997.50;6092911;29;20044;-68
2023/12/10 11:31:21;;;;;;;41.00;19.88;;;;;;;-16.43;35.15;98981.97;6095474;29;20604;-67
2023/12/10 11:34:24;;;;;;;40.90;18.67;;;;;;;-16.55;35.29;99007.16;6097274;29;20040;-68
2023/12/10 11:37:28;;;;;;;64.72;26.13;;;;;;;-16.72;35.13;99011.69;6078825;29;20040;-68
2023/12/10 11:40:30;;;;;;;54.58;18.95;;;;;;;-16.88;35.84;99015.59;6098032;29;20541;-67
2023/12/10 11:43:34;;;;;;;40.22;18.70;;;;;;;-17.01;36.23;99017.94;6092295;29;20192;-68
2023/12/10 11:46:36;;;;;;;50.45;18.85;;;;;;;-17.13;36.72;99017.00;6101286;29;20046;-68
2023/12/10 11:49:37;;;;;;;42.70;15.90;;;;;;;-17.22;36.75;99025.59;6096103;29;20138;-69
2023/12/10 11:52:41;;;;;;;45.08;15.77;;;;;;;-17.40;36.84;99015.75;6091868;29;20048;-65
2023/12/10 11:55:51;;;;;;;36.85;14.10;;;;;;;-17.74;37.62;98988.84;6093350;29;20044;-64
2023/12/10 11:58:55;;;;;;;38.47;14.35;;;;;;;-17.94;37.03;98988.94;6090533;29;20048;-65
2023/12/10 12:02:06;;;;;;;42.03;17.15;;;;;;;-17.90;37.56;99026.13;6097203;29;20049;-65
2023/12/10 12:05:09;;;;;;;42.25;16.98;;;;;;;-18.12;37.18;99034.44;6092666;29;20044;-69
2023/12/10 12:08:10;;;;;;;41.58;17.48;;;;;;;-18.39;37.60;99022.16;6095790;29;20055;-67
2023/12/10 12:11:12;;;;;;;26.33;10.77;;;;;;;-18.46;38.00;99029.94;6096079;29;20422;-67
2023/12/10 12:14:17;;;;;;;27.63;11.63;;;;;;;-18.74;38.06;99041.88;6079055;29;20084;-63
2023/12/10 12:17:22;;;;;;;35.78;15.07;;;;;;;-18.98;38.53;99060.78;6095225;29;20379;-63
2023/12/10 12:20:26;;;;;;;26.58;13.40;;;;;;;-19.15;38.55;99052.72;6093166;29;20052;-64
2023/12/10 12:23:29;;;;;;;24.27;11.65;;;;;;;-19.33;38.87;99061.16;6094082;29;20036;-65
2023/12/10 12:26:33;;;;;;;26.70;9.65;;;;;;;-19.34;38.62;99064.44;6079200;29;20086;-67
2023/12/10 12:29:37;;;;;;;15.18;9.30;;;;;;;-19.40;38.36;99048.84;6097114;29;20048;-65
2023/12/10 12:32:46;;;;;;;18.60;7.38;;;;;;;-19.43;38.90;99053.63;6091690;29;20052;-68
2023/12/10 12:35:47;;;;;;;17.73;8.88;;;;;;;-19.57;39.15;99054.94;6089413;29;20041;-63
2023/12/10 12:38:49;;;;;;;24.83;8.25;;;;;;;-19.66;38.45;99050.03;6094377;29;20438;-67
2023/12/10 12:41:51;;;;;;;16.15;7.30;;;;;;;-19.74;38.83;99051.88;6079496;29;20029;-66
2023/12/10 12:44:55;;;;;;;19.38;7.13;;;;;;;-19.79;38.71;99042.19;6093104;29;20048;-67
2023/12/10 12:48:02;;;;;;;25.40;9.80;;;;;;;-19.85;38.94;99041.66;6077762;29;20051;-66
2023/12/10 12:51:04;;;;;;;10.05;6.28;;;;;;;-19.92;39.18;99045.25;6098930;29;20040;-64
2023/12/10 12:54:06;;;;;;;11.13;7.25;;;;;;;-19.98;39.19;99058.13;6087054;29;20426;-65
2023/12/10 12:57:11;;;;;;;18.33;7.15;;;;;;;-20.04;38.97;99060.06;6093199;29;20458;-63
2023/12/10 13:00:16;;;;;;;19.17;7.47;;;;;;;-20.09;39.46;99055.41;6100283;29;20047;-63
2023/12/10 13:03:20;;;;;;;28.08;9.40;;;;;;;-20.19;39.24;99053.72;6065578;29;20044;-63
2023/12/10 13:06:22;;;;;;;32.95;11.68;;;;;;;-20.33;39.33;99044.97;6094363;29;20285;-64
2023/12/10 13:09:26;;;;;;;39.20;12.43;;;;;;;-20.44;39.80;99046.50;6097868;29;20108;-63
2023/12/10 13:12:28;;;;;;;38.70;12.15;;;;;;;-20.51;39.54;99044.22;6101954;29;20040;-64
2023/12/10 13:15:32;;;;;;;44.20;11.75;;;;;;;-20.54;40.06;99046.47;6087104;29;20547;-69
2023/12/10 13:18:37;;;;;;;34.13;12.45;;;;;;;-20.51;39.82;99046.72;6099509;29;20044;-63
2023/12/10 13:21:42;;;;;;;42.70;12.38;;;;;;;-20.45;40.19;99044.75;6092259;29;20035;-66
2023/12/10 13:24:43;;;;;;;37.30;11.32;;;;;;;-20.37;40.24;99042.06;6093553;29;20050;-64
2023/12/10 13:27:50;;;;;;;34.22;11.20;;;;;;;-20.39;39.99;99026.91;6100769;29;20050;-63
2023/12/10 13:30:53;;;;;;;35.47;11.18;;;;;;;-20.27;39.99;99042.13;6085301;29;20060;-68
2023/12/10 13:34:06;;;;;;;50.75;11.82;;;;;;;-20.18;40.16;99045.44;6099555;29;20231;-62
2023/12/10 13:37:11;;;;;;;35.20;10.90;;;;;;;-20.14;40.20;99044.13;6083123;29;20051;-64
2023/12/10 13:40:15;;;;;;;25.27;9.23;;;;;;;-20.09;40.27;99045.38;6101290;29;20044;-63
2023/12/10 13:43:22;;;;;;;32.63;9.38;;;;;;;-20.11;40.49;99052.78;6096965;29;20035;-64
2023/12/10 13:46:28;;;;;;;24.73;10.63;;;;;;;-20.13;40.14;99044.22;6104891;29;20559;-63
2023/12/10 13:49:33;;;;;;;34.28;11.68;;;;;;;-20.07;40.13;99049.78;6100917;29;20040;-66
2023/12/10 13:52:34;;;;;;;30.67;9.88;;;;;;;-20.05;40.64;99038.28;6094275;29;20064;-65
2023/12/10 13:55:36;;;;;;;28.38;11.60;;;;;;;-20.08;41.28;99038.00;6095016;29;20051;-63
2023/12/10 13:58:41;;;;;;;38.85;9.90;;;;;;;-20.05;40.85;99038.28;6079726;29;20122;-63
2023/12/10 14:01:42;;;;;;;39.80;11.38;;;;;;;-20.04;40.99;99030.00;6097812;29;20139;-63
2023/12/10 14:04:45;;;;;;;34.15;11.88;;;;;;;-19.94;41.11;99037.59;6097143;29;20051;-63
2023/12/10 14:07:49;;;;;;;37.47;13.63;;;;;;;-19.86;40.40;99040.78;6102085;29;20450;-64
2023/12/10 14:10:53;;;;;;;39.10;13.98;;;;;;;-19.80;40.83;99031.28;6093247;29;20048;-64